Hlavní strana
METAR-TAF:

METAR-TAF

Letiště :

Lycksele, Švédsko

zeměpisná šířka: 64-32-51N, zeměpisná délka: 018-43-03E, výška: 211 m

Aktuální stav počasí

Zpráva byla vytvořena před 12 minutami, v 20:20 UTC
Západní vítr 7 kt, proměnlivý mezi západojihozápadním a západoseverozápadním
Teplota 5°C
Vlhkost vzduchu 65%
Tlak 992 hPa
Viditelnost 10 km a více

METAR: ESNL 232020Z AUTO 27007KT 240V300 9999 NCD 05/M01 Q0992

Čas: 22:32 (20:32 UTC)


TAF: chybějící

Stav a předpovědi počasí z více než 4 000 letišť (zprávy METAR a TAF).

Červené a žluté tečky na mapě představují dostupné meteorologické stanice.

Když kurzor umístíte na tečku, zobrazí se název stanice.

Pak kliknutím zobrazíte stav a předpověď počasí.

Chcete-li změnit mapu, kliknutím na zelené tlačítko se znaménkem +mapu přiblížíte, kliknutím na zelené tlačítko se znaménkem – mapu oddálíte a kliknutím na zelené šipky přejdete na sousední mapy.


METAR-TAF: